Time;durP1;ratioP1;P1;durP2;ratioP2;P2;SDS_P1;SDS_P2;PMS_P1;PMS_P2;Temp;Humidity;BMP_temperature;BMP_pressure;BME280_temperature;BME280_humidity;BME280_pressure;Samples;Min_cycle;Max_cycle;Signal;HPM_P1;HPM_P2
2023/11/25 00:01:37;;;;;;;16.83;5.07;;;;;;;;;;4995187;28;25083;-79
2023/11/25 00:04:03;;;;;;;16.10;4.60;;;;;;;;;;4998862;28;25131;-78
2023/11/25 00:06:30;;;;;;;14.82;4.75;;;;;;;;;;4994789;28;25071;-76
2023/11/25 00:08:56;;;;;;;15.43;4.63;;;;;;;;;;4997827;28;25156;-76
2023/11/25 00:11:22;;;;;;;19.00;5.30;;;;;;;;;;4995164;28;25106;-78
2023/11/25 00:13:48;;;;;;;11.90;4.60;;;;;;;;;;5016003;28;25093;-77
2023/11/25 00:16:14;;;;;;;18.42;4.68;;;;;;;;;;4999162;28;25088;-75
2023/11/25 00:18:40;;;;;;;14.70;5.20;;;;;;;;;;4999945;28;25062;-75
2023/11/25 00:21:06;;;;;;;18.75;4.15;;;;;;;;;;4998212;28;25112;-77
2023/11/25 00:23:32;;;;;;;16.95;4.82;;;;;;;;;;4998657;28;25060;-76
2023/11/25 00:25:58;;;;;;;13.77;4.30;;;;;;;;;;5007488;28;25091;-77
2023/11/25 00:28:25;;;;;;;14.05;4.53;;;;;;;;;;5010458;28;25096;-77
2023/11/25 00:30:51;;;;;;;20.50;5.20;;;;;;;;;;5008258;28;25074;-79
2023/11/25 00:33:18;;;;;;;17.30;4.90;;;;;;;;;;4996769;28;25086;-77
2023/11/25 00:35:44;;;;;;;14.55;4.40;;;;;;;;;;5001721;28;25084;-77
2023/11/25 00:38:10;;;;;;;23.13;5.50;;;;;;;;;;5010106;28;25066;-79
2023/11/25 00:40:36;;;;;;;13.70;4.35;;;;;;;;;;5011346;28;25081;-74
2023/11/25 00:43:02;;;;;;;14.82;4.80;;;;;;;;;;5018488;28;25064;-75
2023/11/25 00:45:31;;;;;;;19.30;6.03;;;;;;;;;;5011881;28;25051;-73
2023/11/25 00:47:58;;;;;;;13.77;5.28;;;;;;;;;;5003287;28;25087;-77
2023/11/25 00:50:24;;;;;;;20.60;5.13;;;;;;;;;;5007969;28;25061;-78
2023/11/25 00:52:50;;;;;;;17.15;4.50;;;;;;;;;;5013925;28;25083;-77
2023/11/25 00:55:16;;;;;;;16.10;5.22;;;;;;;;;;5012721;28;25080;-77
2023/11/25 00:57:43;;;;;;;18.00;4.78;;;;;;;;;;5010532;28;25085;-76
2023/11/25 01:00:15;;;;;;;12.32;4.20;;;;;;;;;;5015517;28;25099;-78
2023/11/25 01:02:42;;;;;;;20.67;4.65;;;;;;;;;;5014445;28;25097;-78
2023/11/25 01:05:09;;;;;;;16.58;4.30;;;;;;;;;;5006710;28;25111;-77
2023/11/25 01:07:35;;;;;;;17.02;5.28;;;;;;;;;;5010544;28;25079;-76
2023/11/25 01:10:01;;;;;;;12.70;4.95;;;;;;;;;;5000211;28;25061;-77
2023/11/25 01:12:27;;;;;;;18.20;4.85;;;;;;;;;;4996538;28;25074;-78
2023/11/25 01:14:54;;;;;;;16.27;5.13;;;;;;;;;;4998328;28;25060;-77
2023/11/25 01:17:20;;;;;;;20.27;5.20;;;;;;;;;;4999354;28;25059;-77
2023/11/25 01:19:47;;;;;;;17.65;5.72;;;;;;;;;;4996670;28;25082;-77
2023/11/25 01:22:13;;;;;;;23.50;5.70;;;;;;;;;;4997382;28;25089;-78
2023/11/25 01:24:39;;;;;;;14.05;4.95;;;;;;;;;;4997750;28;25083;-77
2023/11/25 01:27:06;;;;;;;15.52;4.82;;;;;;;;;;4991827;28;25149;-75
2023/11/25 01:29:32;;;;;;;13.43;4.82;;;;;;;;;;4995037;28;25165;-77
2023/11/25 01:31:59;;;;;;;19.27;5.75;;;;;;;;;;4997280;28;25066;-76
2023/11/25 01:34:25;;;;;;;21.35;6.57;;;;;;;;;;4996727;28;25047;-78
2023/11/25 01:36:52;;;;;;;21.17;6.80;;;;;;;;;;4999242;28;25066;-77
2023/11/25 01:39:18;;;;;;;16.05;6.15;;;;;;;;;;4997097;28;25145;-75
2023/11/25 01:41:44;;;;;;;21.80;6.28;;;;;;;;;;4991902;28;25082;-77
2023/11/25 01:44:10;;;;;;;24.20;6.57;;;;;;;;;;4998401;28;25049;-74
2023/11/25 01:46:42;;;;;;;26.60;7.85;;;;;;;;;;4994512;28;25175;-76
2023/11/25 01:49:13;;;;;;;20.90;7.68;;;;;;;;;;4994458;28;25058;-76
2023/11/25 01:51:42;;;;;;;23.67;6.57;;;;;;;;;;4996668;28;25075;-77
2023/11/25 01:54:08;;;;;;;20.75;7.07;;;;;;;;;;4990828;28;25054;-77
2023/11/25 01:56:35;;;;;;;20.20;7.10;;;;;;;;;;4990341;28;25140;-77
2023/11/25 01:59:04;;;;;;;22.75;7.30;;;;;;;;;;5001370;28;25114;-75
2023/11/25 02:01:30;;;;;;;22.13;7.95;;;;;;;;;;4988367;28;25146;-76
2023/11/25 02:03:56;;;;;;;25.85;7.68;;;;;;;;;;4984270;28;25065;-76
2023/11/25 02:06:26;;;;;;;28.48;8.30;;;;;;;;;;4988857;28;25140;-76
2023/11/25 02:08:52;;;;;;;21.95;7.93;;;;;;;;;;4992733;28;25091;-75
2023/11/25 02:11:18;;;;;;;28.98;8.15;;;;;;;;;;4981945;28;25071;-75
2023/11/25 02:13:44;;;;;;;20.55;8.95;;;;;;;;;;4986783;28;25060;-78
2023/11/25 02:16:11;;;;;;;27.25;9.25;;;;;;;;;;4979487;28;25048;-76
2023/11/25 02:18:37;;;;;;;24.27;8.90;;;;;;;;;;4984471;28;25091;-77
2023/11/25 02:21:05;;;;;;;32.72;9.45;;;;;;;;;;4991496;28;25103;-76
2023/11/25 02:23:34;;;;;;;28.70;9.02;;;;;;;;;;4989917;28;25061;-76
2023/11/25 02:26:00;;;;;;;31.25;10.00;;;;;;;;;;4979317;28;25111;-76
2023/11/25 02:28:26;;;;;;;27.63;9.60;;;;;;;;;;4980452;28;25115;-76
2023/11/25 02:30:52;;;;;;;22.30;8.60;;;;;;;;;;4985689;28;25066;-76
2023/11/25 02:33:20;;;;;;;40.75;10.43;;;;;;;;;;4987377;28;25071;-76
2023/11/25 02:35:49;;;;;;;24.85;9.90;;;;;;;;;;4981420;28;25074;-77
2023/11/25 02:38:15;;;;;;;19.73;8.30;;;;;;;;;;4988638;28;25066;-75
2023/11/25 02:40:43;;;;;;;27.15;9.70;;;;;;;;;;4983234;28;25148;-76
2023/11/25 02:43:11;;;;;;;27.52;8.63;;;;;;;;;;4979778;28;25155;-76
2023/11/25 02:45:37;;;;;;;34.25;10.50;;;;;;;;;;4985158;28;25143;-76
2023/11/25 02:48:04;;;;;;;32.92;9.63;;;;;;;;;;4981553;28;25131;-76
2023/11/25 02:50:30;;;;;;;30.90;9.65;;;;;;;;;;4986522;28;25077;-75
2023/11/25 02:52:56;;;;;;;26.85;9.60;;;;;;;;;;4986592;28;25124;-76
2023/11/25 02:55:22;;;;;;;24.70;9.65;;;;;;;;;;4986647;28;25063;-76
2023/11/25 02:57:48;;;;;;;29.48;9.40;;;;;;;;;;4986685;28;25076;-75
2023/11/25 03:00:33;;;;;;;27.48;8.93;;;;;;;;;;4986471;28;25068;-76
2023/11/25 03:03:07;;;;;;;38.83;10.73;;;;;;;;;;4979600;28;25117;-77
2023/11/25 03:05:33;;;;;;;39.78;10.65;;;;;;;;;;4980338;28;25065;-76
2023/11/25 03:08:00;;;;;;;23.90;9.30;;;;;;;;;;4987338;28;25058;-77
2023/11/25 03:10:26;;;;;;;25.70;9.45;;;;;;;;;;4986018;28;25081;-75
2023/11/25 03:12:52;;;;;;;29.30;10.10;;;;;;;;;;4988362;28;25081;-76
2023/11/25 03:15:18;;;;;;;22.30;8.77;;;;;;;;;;4985713;28;25061;-76
2023/11/25 03:17:44;;;;;;;24.55;9.48;;;;;;;;;;4978132;28;25154;-76
2023/11/25 03:20:10;;;;;;;31.25;8.65;;;;;;;;;;4983638;28;25070;-76
2023/11/25 03:22:37;;;;;;;23.25;8.25;;;;;;;;;;4984314;28;25127;-76
2023/11/25 03:25:05;;;;;;;21.95;8.80;;;;;;;;;;4986728;28;25075;-77
2023/11/25 03:27:31;;;;;;;31.73;10.05;;;;;;;;;;4985790;28;25115;-76
2023/11/25 03:29:57;;;;;;;25.27;9.55;;;;;;;;;;4986667;28;25169;-75
2023/11/25 03:32:25;;;;;;;25.00;9.93;;;;;;;;;;4989666;28;25090;-76
2023/11/25 03:34:51;;;;;;;39.35;10.98;;;;;;;;;;4986082;28;25192;-76
2023/11/25 03:37:17;;;;;;;27.48;12.07;;;;;;;;;;4994638;28;25147;-75
2023/11/25 03:39:43;;;;;;;32.53;13.98;;;;;;;;;;4989574;28;25057;-75
2023/11/25 03:42:09;;;;;;;29.70;13.00;;;;;;;;;;4988195;28;25077;-76
2023/11/25 03:44:36;;;;;;;23.50;13.18;;;;;;;;;;4989686;28;25060;-76
2023/11/25 03:47:03;;;;;;;30.00;13.02;;;;;;;;;;4988454;28;25059;-77
2023/11/25 03:49:29;;;;;;;25.00;14.13;;;;;;;;;;5000188;28;25176;-77
2023/11/25 03:51:55;;;;;;;27.92;13.27;;;;;;;;;;5001499;28;24961;-77
2023/11/25 03:54:21;;;;;;;30.02;13.30;;;;;;;;;;5000990;28;25125;-76
2023/11/25 03:56:48;;;;;;;20.08;12.23;;;;;;;;;;4993971;28;25072;-76
2023/11/25 03:59:14;;;;;;;37.10;14.15;;;;;;;;;;4992480;28;25154;-75
2023/11/25 04:01:43;;;;;;;24.23;11.45;;;;;;;;;;4984670;28;25075;-77
2023/11/25 04:04:10;;;;;;;20.35;9.20;;;;;;;;;;4987263;28;25073;-76
2023/11/25 04:06:36;;;;;;;22.85;8.00;;;;;;;;;;5001308;28;25055;-76
2023/11/25 04:09:02;;;;;;;27.00;6.80;;;;;;;;;;5013004;28;25063;-78
2023/11/25 04:11:28;;;;;;;24.83;6.45;;;;;;;;;;5006357;28;25137;-77
2023/11/25 04:13:57;;;;;;;16.15;6.32;;;;;;;;;;5007042;28;25077;-75
2023/11/25 04:16:23;;;;;;;26.08;9.45;;;;;;;;;;5012243;28;25117;-77
2023/11/25 04:18:49;;;;;;;23.23;8.23;;;;;;;;;;5007680;28;25054;-74
2023/11/25 04:21:15;;;;;;;21.15;8.27;;;;;;;;;;4996790;28;25049;-76
2023/11/25 04:23:41;;;;;;;18.88;8.38;;;;;;;;;;4991343;28;25059;-74
2023/11/25 04:26:07;;;;;;;19.52;9.25;;;;;;;;;;4991911;28;25054;-75
2023/11/25 04:28:33;;;;;;;18.73;10.82;;;;;;;;;;4992366;28;25096;-76
2023/11/25 04:31:00;;;;;;;23.98;12.90;;;;;;;;;;4984718;28;25087;-79
2023/11/25 04:33:26;;;;;;;31.33;28.48;;;;;;;;;;4989463;28;25103;-77
2023/11/25 04:35:52;;;;;;;40.45;36.65;;;;;;;;;;4991896;28;25101;-76
2023/11/25 04:38:18;;;;;;;42.45;38.63;;;;;;;;;;4992803;28;25057;-79
2023/11/25 04:40:45;;;;;;;39.10;35.58;;;;;;;;;;4991404;28;25061;-78
2023/11/25 04:43:11;;;;;;;47.67;43.53;;;;;;;;;;4987599;28;25067;-76
2023/11/25 04:45:37;;;;;;;58.55;53.60;;;;;;;;;;4989317;28;25065;-78
2023/11/25 04:48:03;;;;;;;59.42;55.30;;;;;;;;;;4989330;28;25058;-75
2023/11/25 04:50:34;;;;;;;49.85;46.03;;;;;;;;;;4991058;28;25154;-75
2023/11/25 04:53:00;;;;;;;43.55;40.92;;;;;;;;;;4988071;28;25058;-78
2023/11/25 04:55:27;;;;;;;48.22;45.33;;;;;;;;;;4987582;28;25086;-77
2023/11/25 04:57:53;;;;;;;49.28;45.72;;;;;;;;;;4992595;28;25069;-76
2023/11/25 05:00:21;;;;;;;44.20;41.70;;;;;;;;;;5011757;28;25076;-76
2023/11/25 05:02:47;;;;;;;46.47;43.60;;;;;;;;;;5001318;28;25072;-78
2023/11/25 05:05:13;;;;;;;45.88;42.95;;;;;;;;;;4993619;28;25097;-78
2023/11/25 05:07:39;;;;;;;47.22;43.80;;;;;;;;;;4997148;28;25075;-78
2023/11/25 05:10:06;;;;;;;51.35;47.35;;;;;;;;;;4990103;28;25074;-79
2023/11/25 05:12:32;;;;;;;59.17;55.45;;;;;;;;;;4995768;28;25060;-79
2023/11/25 05:14:59;;;;;;;59.78;55.78;;;;;;;;;;4995048;28;25072;-77
2023/11/25 05:17:26;;;;;;;60.30;56.40;;;;;;;;;;4991843;28;25068;-78
2023/11/25 05:19:52;;;;;;;63.75;58.85;;;;;;;;;;4997909;28;25055;-78
2023/11/25 05:22:20;;;;;;;59.45;55.05;;;;;;;;;;4996100;28;25053;-77
2023/11/25 05:24:46;;;;;;;58.83;54.97;;;;;;;;;;4992539;28;25063;-77
2023/11/25 05:27:12;;;;;;;60.92;56.97;;;;;;;;;;4990747;28;25062;-76
2023/11/25 05:29:38;;;;;;;62.03;57.10;;;;;;;;;;4993395;28;25072;-77
2023/11/25 05:32:07;;;;;;;60.35;56.28;;;;;;;;;;5014111;28;25055;-76
2023/11/25 05:34:33;;;;;;;62.03;57.72;;;;;;;;;;4993159;28;25058;-75
2023/11/25 05:37:00;;;;;;;59.20;55.15;;;;;;;;;;4993971;28;25132;-77
2023/11/25 05:39:26;;;;;;;55.90;52.30;;;;;;;;;;5000338;28;25050;-76
2023/11/25 05:41:52;;;;;;;55.05;51.28;;;;;;;;;;4997059;28;25076;-77
2023/11/25 05:44:20;;;;;;;55.03;51.38;;;;;;;;;;4994580;28;25061;-77
2023/11/25 05:46:47;;;;;;;55.20;51.42;;;;;;;;;;5004634;28;25078;-77
2023/11/25 05:49:13;;;;;;;48.95;45.40;;;;;;;;;;5013769;28;25062;-80
2023/11/25 05:51:42;;;;;;;50.42;46.80;;;;;;;;;;4993634;28;25085;-74
2023/11/25 05:54:08;;;;;;;52.03;47.95;;;;;;;;;;4986491;28;25064;-73
2023/11/25 05:56:35;;;;;;;53.20;49.70;;;;;;;;;;4988863;28;25095;-75
2023/11/25 05:59:02;;;;;;;49.45;45.90;;;;;;;;;;4986600;28;25099;-76
2023/11/25 06:01:28;;;;;;;58.45;54.47;;;;;;;;;;4994596;28;25060;-75
2023/11/25 06:03:54;;;;;;;57.67;53.45;;;;;;;;;;5000579;28;25089;-75
2023/11/25 06:06:21;;;;;;;58.80;54.80;;;;;;;;;;5003638;28;25078;-74
2023/11/25 06:08:49;;;;;;;52.42;48.40;;;;;;;;;;5002283;28;25065;-75
2023/11/25 06:11:22;;;;;;;40.78;37.83;;;;;;;;;;4998490;28;25079;-73
2023/11/25 06:13:48;;;;;;;43.85;40.65;;;;;;;;;;4999677;28;25050;-74
2023/11/25 06:16:14;;;;;;;41.15;38.50;;;;;;;;;;4994412;28;25083;-74
2023/11/25 06:18:40;;;;;;;30.38;28.10;;;;;;;;;;5002329;28;25144;-74
2023/11/25 06:21:06;;;;;;;26.45;24.52;;;;;;;;;;4998102;28;25062;-75
2023/11/25 06:23:32;;;;;;;26.58;24.58;;;;;;;;;;4987490;28;25185;-74
2023/11/25 06:25:59;;;;;;;26.25;24.38;;;;;;;;;;4999387;28;25128;-75
2023/11/25 06:28:25;;;;;;;25.83;22.10;;;;;;;;;;4979652;28;25065;-73
2023/11/25 06:30:54;;;;;;;23.00;21.40;;;;;;;;;;4983447;28;25056;-75
2023/11/25 06:33:26;;;;;;;28.90;26.48;;;;;;;;;;4984160;28;25062;-76
2023/11/25 06:35:57;;;;;;;21.67;19.83;;;;;;;;;;4985124;28;25064;-75
2023/11/25 06:38:23;;;;;;;26.33;24.45;;;;;;;;;;4982264;28;25076;-75
2023/11/25 06:40:49;;;;;;;30.52;28.48;;;;;;;;;;4984984;28;25066;-75
2023/11/25 06:43:15;;;;;;;31.48;28.88;;;;;;;;;;4978729;28;25091;-74
2023/11/25 06:45:44;;;;;;;32.30;30.02;;;;;;;;;;4984963;28;25073;-72
2023/11/25 06:48:10;;;;;;;36.80;34.50;;;;;;;;;;4984776;28;25101;-73
2023/11/25 06:50:36;;;;;;;37.95;34.60;;;;;;;;;;4986469;28;25074;-74
2023/11/25 06:53:03;;;;;;;39.47;36.72;;;;;;;;;;4982225;28;25144;-75
2023/11/25 06:55:29;;;;;;;35.10;31.77;;;;;;;;;;4985528;28;25080;-75
2023/11/25 06:57:55;;;;;;;57.50;54.00;;;;;;;;;;4988213;28;25141;-74
2023/11/25 07:00:22;;;;;;;145.32;136.13;;;;;;;;;;4987699;28;25106;-75
2023/11/25 07:02:49;;;;;;;119.55;112.13;;;;;;;;;;4999060;28;25094;-76
2023/11/25 07:05:15;;;;;;;125.60;117.78;;;;;;;;;;4999533;28;25064;-75
2023/11/25 07:07:41;;;;;;;119.05;111.15;;;;;;;;;;4992275;28;25077;-74
2023/11/25 07:10:09;;;;;;;119.95;112.22;;;;;;;;;;4996450;28;25133;-76
2023/11/25 07:12:37;;;;;;;128.20;119.88;;;;;;;;;;5000268;28;25080;-75
2023/11/25 07:15:04;;;;;;;123.43;115.30;;;;;;;;;;5002570;28;25084;-76
2023/11/25 07:17:30;;;;;;;127.47;118.63;;;;;;;;;;5006020;28;25062;-74
2023/11/25 07:19:56;;;;;;;126.65;117.90;;;;;;;;;;5006933;28;25054;-76
2023/11/25 07:22:22;;;;;;;135.50;126.25;;;;;;;;;;5004387;28;25061;-76
2023/11/25 07:24:48;;;;;;;139.23;129.45;;;;;;;;;;5005914;28;25075;-77
2023/11/25 07:27:18;;;;;;;133.23;123.97;;;;;;;;;;5002197;28;25057;-76
2023/11/25 07:29:44;;;;;;;136.93;127.07;;;;;;;;;;4998384;28;25058;-76
2023/11/25 07:32:12;;;;;;;136.48;126.60;;;;;;;;;;4989882;28;25132;-77
2023/11/25 07:34:38;;;;;;;119.13;110.95;;;;;;;;;;5000196;28;25051;-76
2023/11/25 07:37:05;;;;;;;119.30;111.30;;;;;;;;;;4998152;28;25067;-76
2023/11/25 07:39:33;;;;;;;119.82;111.63;;;;;;;;;;4997192;28;25079;-77
2023/11/25 07:41:59;;;;;;;120.25;111.55;;;;;;;;;;5003486;28;25061;-77
2023/11/25 07:44:27;;;;;;;122.40;113.20;;;;;;;;;;4996893;28;25123;-78
2023/11/25 07:46:53;;;;;;;122.28;113.18;;;;;;;;;;4991416;28;25060;-76
2023/11/25 07:49:19;;;;;;;112.22;103.88;;;;;;;;;;4991191;28;25078;-77
2023/11/25 07:51:48;;;;;;;105.35;97.25;;;;;;;;;;4992702;28;25078;-77
2023/11/25 07:54:14;;;;;;;101.80;93.93;;;;;;;;;;4998243;28;25068;-76
2023/11/25 07:56:40;;;;;;;97.75;90.15;;;;;;;;;;4992434;28;25126;-77
2023/11/25 07:59:06;;;;;;;107.28;99.13;;;;;;;;;;4986206;28;25059;-77
2023/11/25 08:01:32;;;;;;;106.32;98.35;;;;;;;;;;4985824;28;25077;-75
2023/11/25 08:03:59;;;;;;;105.35;97.10;;;;;;;;;;4982711;28;25054;-77
2023/11/25 08:06:25;;;;;;;106.50;98.15;;;;;;;;;;4984610;28;25112;-76
2023/11/25 08:08:52;;;;;;;103.78;95.38;;;;;;;;;;4981558;28;25126;-77
2023/11/25 08:11:24;;;;;;;97.25;89.55;;;;;;;;;;4984184;28;25061;-76
2023/11/25 08:13:50;;;;;;;;;;;;;;;;;;4984786;28;25074;-78
2023/11/25 08:16:18;;;;;;;100.20;92.22;;;;;;;;;;4987388;28;25060;-78
2023/11/25 08:18:45;;;;;;;101.00;93.10;;;;;;;;;;4985214;28;25063;-75
2023/11/25 08:21:11;;;;;;;93.32;85.40;;;;;;;;;;4986733;28;25064;-77
2023/11/25 08:23:37;;;;;;;88.63;81.70;;;;;;;;;;4988231;28;25073;-76
2023/11/25 08:26:04;;;;;;;83.70;77.43;;;;;;;;;;4989333;28;25063;-75
2023/11/25 08:28:30;;;;;;;76.65;70.72;;;;;;;;;;4989867;28;25113;-76
2023/11/25 08:30:56;;;;;;;77.18;71.00;;;;;;;;;;4990422;28;25070;-77
2023/11/25 08:33:21;;;;;;;73.63;68.30;;;;;;;;;;4991809;28;25056;-78
2023/11/25 08:35:47;;;;;;;69.28;64.45;;;;;;;;;;4990226;28;25049;-77
2023/11/25 08:38:14;;;;;;;73.68;67.85;;;;;;;;;;4987033;28;25129;-77
2023/11/25 08:40:41;;;;;;;74.72;68.82;;;;;;;;;;4990614;28;25143;-77
2023/11/25 08:43:12;;;;;;;86.50;79.38;;;;;;;;;;4992482;28;25062;-78
2023/11/25 08:45:38;;;;;;;66.85;61.40;;;;;;;;;;4987935;28;25132;-77
2023/11/25 08:48:05;;;;;;;59.88;55.20;;;;;;;;;;4990997;28;25087;-79
2023/11/25 08:50:33;;;;;;;66.38;61.50;;;;;;;;;;4990164;28;25147;-78
2023/11/25 08:53:02;;;;;;;68.10;63.00;;;;;;;;;;4990907;28;25054;-77
2023/11/25 08:55:27;;;;;;;73.72;68.47;;;;;;;;;;4989836;28;25057;-77
2023/11/25 08:57:53;;;;;;;70.68;65.22;;;;;;;;;;4988002;28;25067;-76
2023/11/25 09:00:20;;;;;;;79.18;72.57;;;;;;;;;;4988693;28;25065;-77
2023/11/25 09:02:50;;;;;;;69.93;64.28;;;;;;;;;;4986869;28;25133;-78
2023/11/25 09:05:21;;;;;;;73.28;67.25;;;;;;;;;;4989961;28;25072;-77
2023/11/25 09:07:50;;;;;;;76.20;69.95;;;;;;;;;;4985734;28;25066;-75
2023/11/25 09:10:16;;;;;;;70.25;63.95;;;;;;;;;;4987738;28;25067;-77
2023/11/25 09:12:42;;;;;;;67.07;61.38;;;;;;;;;;4988928;28;25064;-79
2023/11/25 09:15:08;;;;;;;68.15;62.50;;;;;;;;;;4986899;28;25053;-76
2023/11/25 09:17:38;;;;;;;63.72;58.70;;;;;;;;;;4989480;28;25111;-77
2023/11/25 09:20:07;;;;;;;66.53;60.75;;;;;;;;;;4992005;28;25124;-78
2023/11/25 09:22:33;;;;;;;61.08;56.22;;;;;;;;;;4996192;28;25169;-78
2023/11/25 09:24:59;;;;;;;63.92;58.85;;;;;;;;;;4991129;28;25092;-78
2023/11/25 09:27:25;;;;;;;60.03;55.03;;;;;;;;;;4989782;28;25123;-78
2023/11/25 09:29:51;;;;;;;59.67;55.35;;;;;;;;;;4988406;28;25051;-77
2023/11/25 09:32:18;;;;;;;60.60;55.83;;;;;;;;;;4984958;28;25063;-77
2023/11/25 09:34:44;;;;;;;56.92;52.35;;;;;;;;;;4987605;28;25102;-78
2023/11/25 09:37:11;;;;;;;51.88;48.13;;;;;;;;;;4989236;28;25153;-78
2023/11/25 09:39:36;;;;;;;46.60;43.10;;;;;;;;;;4989238;28;25047;-79
2023/11/25 09:42:03;;;;;;;35.85;32.60;;;;;;;;;;4990399;28;25049;-80
2023/11/25 09:44:29;;;;;;;38.78;35.38;;;;;;;;;;4985543;28;25081;-77
2023/11/25 09:46:56;;;;;;;32.25;29.83;;;;;;;;;;4990829;28;25058;-77
2023/11/25 09:49:22;;;;;;;37.80;28.98;;;;;;;;;;4984853;28;25070;-77
2023/11/25 09:51:48;;;;;;;29.25;26.88;;;;;;;;;;4987650;28;25084;-77
2023/11/25 09:54:19;;;;;;;30.15;27.10;;;;;;;;;;4988168;28;25115;-79
2023/11/25 09:56:47;;;;;;;29.70;26.60;;;;;;;;;;4988935;28;25095;-78
2023/11/25 09:59:13;;;;;;;24.45;21.30;;;;;;;;;;4988286;28;25082;-78
2023/11/25 10:01:40;;;;;;;24.20;18.15;;;;;;;;;;4986702;28;25137;-76
2023/11/25 10:04:08;;;;;;;21.23;15.57;;;;;;;;;;4988765;28;25052;-76
2023/11/25 10:06:34;;;;;;;21.92;13.15;;;;;;;;;;4989858;28;25070;-76
2023/11/25 10:09:00;;;;;;;24.33;10.98;;;;;;;;;;4988039;28;25076;-78
2023/11/25 10:11:30;;;;;;;12.25;8.75;;;;;;;;;;4987540;28;25099;-77
2023/11/25 10:13:56;;;;;;;20.85;11.35;;;;;;;;;;4987064;28;25111;-76
2023/11/25 10:16:29;;;;;;;12.85;7.32;;;;;;;;;;4988785;28;25072;-76
2023/11/25 10:18:58;;;;;;;18.50;8.93;;;;;;;;;;4988273;28;25131;-78
2023/11/25 10:21:24;;;;;;;22.23;7.38;;;;;;;;;;4988797;28;25090;-79
2023/11/25 10:23:54;;;;;;;18.02;5.93;;;;;;;;;;4988808;28;25054;-77
2023/11/25 10:26:20;;;;;;;15.43;5.53;;;;;;;;;;4988426;28;25151;-77
2023/11/25 10:28:46;;;;;;;10.32;3.67;;;;;;;;;;4990585;28;25108;-77
2023/11/25 10:31:14;;;;;;;15.07;2.90;;;;;;;;;;4990632;28;25080;-77
2023/11/25 10:33:40;;;;;;;13.48;2.90;;;;;;;;;;4984685;28;25169;-77
2023/11/25 10:36:08;;;;;;;7.78;2.28;;;;;;;;;;4980774;28;25065;-77
2023/11/25 10:38:34;;;;;;;11.57;3.35;;;;;;;;;;4986700;28;25097;-76
2023/11/25 10:41:00;;;;;;;13.82;2.70;;;;;;;;;;4986545;28;25179;-74
2023/11/25 10:43:27;;;;;;;7.03;2.65;;;;;;;;;;4987255;28;25070;-77
2023/11/25 10:46:03;;;;;;;12.25;2.80;;;;;;;;;;4988854;28;25064;-76
2023/11/25 10:48:29;;;;;;;13.75;2.78;;;;;;;;;;4984677;28;25091;-76
2023/11/25 10:50:57;;;;;;;12.10;3.65;;;;;;;;;;4986390;28;25062;-74
2023/11/25 10:53:27;;;;;;;19.63;3.90;;;;;;;;;;4985181;28;25070;-75
2023/11/25 10:55:56;;;;;;;24.65;4.80;;;;;;;;;;4986651;28;25118;-79
2023/11/25 10:58:22;;;;;;;16.00;4.63;;;;;;;;;;4986810;28;25074;-74
2023/11/25 11:00:48;;;;;;;19.65;4.82;;;;;;;;;;4981906;28;25052;-73
2023/11/25 11:03:14;;;;;;;17.85;3.80;;;;;;;;;;4985594;28;25110;-75
2023/11/25 11:05:42;;;;;;;14.23;4.25;;;;;;;;;;4987250;28;25055;-74
2023/11/25 11:08:11;;;;;;;19.23;4.38;;;;;;;;;;4979010;28;25051;-74
2023/11/25 11:10:42;;;;;;;30.40;5.35;;;;;;;;;;4981524;28;25089;-75
2023/11/25 11:13:08;;;;;;;16.00;3.47;;;;;;;;;;4990903;28;25048;-73
2023/11/25 11:15:36;;;;;;;17.90;4.03;;;;;;;;;;4996221;28;25129;-74
2023/11/25 11:18:06;;;;;;;18.08;4.25;;;;;;;;;;4997525;28;25072;-75
2023/11/25 11:20:33;;;;;;;15.80;3.90;;;;;;;;;;4994779;28;25073;-74
2023/11/25 11:22:59;;;;;;;17.95;4.63;;;;;;;;;;4994594;28;25076;-75
2023/11/25 11:25:29;;;;;;;24.23;5.03;;;;;;;;;;5001987;28;25084;-74
2023/11/25 11:28:11;;;;;;;21.65;5.20;;;;;;;;;;5000487;28;25052;-74
2023/11/25 11:30:56;;;;;;;19.98;3.88;;;;;;;;;;5001407;28;25108;-73
2023/11/25 11:33:22;;;;;;;9.60;4.03;;;;;;;;;;4998162;28;25109;-73
2023/11/25 11:35:49;;;;;;;13.15;3.67;;;;;;;;;;4996762;28;25123;-74
2023/11/25 11:38:32;;;;;;;13.30;3.33;;;;;;;;;;4993554;28;25060;-75
2023/11/25 11:41:20;;;;;;;10.10;3.22;;;;;;;;;;4989311;28;25120;-74
2023/11/25 11:44:05;;;;;;;7.22;4.10;;;;;;;;;;4976265;28;25056;-74
2023/11/25 11:46:31;;;;;;;6.13;2.60;;;;;;;;;;4987651;28;25090;-74
2023/11/25 11:48:58;;;;;;;5.55;3.50;;;;;;;;;;4978757;28;25108;-78
2023/11/25 11:51:24;;;;;;;11.82;4.70;;;;;;;;;;4985505;28;25068;-76
2023/11/25 11:54:09;;;;;;;10.75;5.88;;;;;;;;;;4991848;28;25078;-77
2023/11/25 11:56:53;;;;;;;17.75;8.13;;;;;;;;;;4988704;28;25082;-75
2023/11/25 11:59:20;;;;;;;15.88;9.25;;;;;;;;;;4989845;28;25071;-73
2023/11/25 12:01:46;;;;;;;16.88;8.93;;;;;;;;;;4992881;28;25047;-74
2023/11/25 12:04:13;;;;;;;18.60;10.07;;;;;;;;;;4991305;28;25050;-75
2023/11/25 12:06:39;;;;;;;16.52;9.77;;;;;;;;;;4987060;28;25076;-77
2023/11/25 12:09:05;;;;;;;22.52;9.18;;;;;;;;;;4990433;28;25089;-76
2023/11/25 12:11:31;;;;;;;24.15;9.00;;;;;;;;;;4994992;28;25075;-73
2023/11/25 12:13:57;;;;;;;21.42;6.90;;;;;;;;;;4993346;28;25099;-74
2023/11/25 12:16:23;;;;;;;19.13;6.35;;;;;;;;;;4993803;28;25100;-76
2023/11/25 12:18:49;;;;;;;20.60;6.97;;;;;;;;;;4992191;28;25159;-75
2023/11/25 12:21:15;;;;;;;22.50;6.38;;;;;;;;;;4991812;28;25186;-75
2023/11/25 12:23:41;;;;;;;27.48;7.15;;;;;;;;;;4991738;28;25080;-74
2023/11/25 12:26:07;;;;;;;25.77;7.60;;;;;;;;;;4996417;28;25101;-77
2023/11/25 12:28:41;;;;;;;32.35;11.02;;;;;;;;;;4994971;28;25062;-75
2023/11/25 12:31:08;;;;;;;23.15;9.45;;;;;;;;;;4980137;28;25063;-78
2023/11/25 12:33:35;;;;;;;22.92;11.38;;;;;;;;;;4986698;28;25065;-79
2023/11/25 12:36:02;;;;;;;29.20;14.30;;;;;;;;;;4998494;28;25084;-76
2023/11/25 12:38:31;;;;;;;33.63;18.90;;;;;;;;;;4998401;28;25075;-74
2023/11/25 12:40:57;;;;;;;22.90;13.30;;;;;;;;;;4991215;28;25074;-77
2023/11/25 12:43:23;;;;;;;19.98;13.90;;;;;;;;;;4991764;28;25133;-76
2023/11/25 12:45:49;;;;;;;17.67;12.93;;;;;;;;;;4985396;28;25056;-76
2023/11/25 12:48:29;;;;;;;25.40;13.07;;;;;;;;;;4987449;28;25042;-76
2023/11/25 12:50:58;;;;;;;19.95;12.10;;;;;;;;;;4980318;28;25174;-74
2023/11/25 12:53:24;;;;;;;23.55;11.70;;;;;;;;;;4990097;28;25090;-75
2023/11/25 12:55:50;;;;;;;21.30;9.65;;;;;;;;;;4988901;28;25086;-76
2023/11/25 12:58:17;;;;;;;29.13;8.60;;;;;;;;;;4983940;28;25073;-74
2023/11/25 13:00:47;;;;;;;25.95;9.43;;;;;;;;;;4988075;28;25095;-77
2023/11/25 13:03:23;;;;;;;25.05;8.85;;;;;;;;;;4989544;28;25061;-75
2023/11/25 13:05:57;;;;;;;22.50;6.90;;;;;;;;;;4993334;28;25056;-76
2023/11/25 13:08:27;;;;;;;23.67;7.60;;;;;;;;;;4994102;28;25069;-79
2023/11/25 13:10:53;;;;;;;17.40;6.40;;;;;;;;;;4994631;28;25056;-79
2023/11/25 13:13:20;;;;;;;33.38;7.70;;;;;;;;;;4991450;28;25061;-77
2023/11/25 13:15:46;;;;;;;33.28;11.68;;;;;;;;;;4992547;28;25072;-76
2023/11/25 13:18:12;;;;;;;27.85;12.77;;;;;;;;;;4993341;28;25146;-80
2023/11/25 13:20:39;;;;;;;23.63;17.50;;;;;;;;;;4985124;28;25063;-78
2023/11/25 13:23:05;;;;;;;32.05;28.65;;;;;;;;;;4987089;28;25392;-75
2023/11/25 13:25:32;;;;;;;34.00;27.75;;;;;;;;;;4992287;28;25062;-78
2023/11/25 13:27:58;;;;;;;32.55;29.10;;;;;;;;;;5001447;28;25080;-78
2023/11/25 13:30:24;;;;;;;35.67;32.22;;;;;;;;;;4994830;28;25061;-78
2023/11/25 13:32:53;;;;;;;28.30;25.73;;;;;;;;;;5000746;28;25074;-77
2023/11/25 13:35:19;;;;;;;29.33;26.42;;;;;;;;;;4995408;28;25074;-79
2023/11/25 13:37:45;;;;;;;28.63;24.52;;;;;;;;;;4996961;28;25148;-77
2023/11/25 13:40:19;;;;;;;28.88;25.00;;;;;;;;;;4997728;28;25155;-79
2023/11/25 13:42:45;;;;;;;33.95;26.63;;;;;;;;;;4998817;28;25056;-76
2023/11/25 13:45:11;;;;;;;30.20;26.75;;;;;;;;;;5001759;28;25078;-77
2023/11/25 13:47:38;;;;;;;28.20;24.55;;;;;;;;;;4998547;28;25050;-76
2023/11/25 13:50:07;;;;;;;20.83;17.20;;;;;;;;;;4994289;28;25062;-79
2023/11/25 13:52:33;;;;;;;20.05;10.73;;;;;;;;;;4993746;28;25070;-79
2023/11/25 13:55:00;;;;;;;22.30;8.40;;;;;;;;;;4994198;28;25086;-79
2023/11/25 13:57:26;;;;;;;15.10;5.95;;;;;;;;;;4996292;28;25228;-77
2023/11/25 13:59:52;;;;;;;23.23;5.85;;;;;;;;;;4996357;28;25084;-77
2023/11/25 14:02:18;;;;;;;10.25;4.50;;;;;;;;;;4998582;28;25069;-78
2023/11/25 14:04:44;;;;;;;17.40;7.50;;;;;;;;;;5004803;28;25077;-78
2023/11/25 14:07:10;;;;;;;22.60;20.33;;;;;;;;;;5000341;28;25063;-75
2023/11/25 14:09:36;;;;;;;31.38;28.77;;;;;;;;;;4985911;28;25074;-77
2023/11/25 14:12:03;;;;;;;34.92;31.50;;;;;;;;;;4990793;28;25154;-79
2023/11/25 14:14:29;;;;;;;33.78;30.85;;;;;;;;;;4993218;28;25078;-79
2023/11/25 14:16:55;;;;;;;31.05;28.30;;;;;;;;;;4984176;28;25128;-76
2023/11/25 14:19:22;;;;;;;26.65;24.70;;;;;;;;;;4990359;28;25120;-78
2023/11/25 14:21:48;;;;;;;29.58;27.42;;;;;;;;;;4984497;28;25063;-77